Terminal Aerodrome Forecast
Issued by NWS

Current Version | Previous Version | Text Only | Print | Product List | Glossary On
Versions: 1 2 3 4 5 6 7 8 9 10 11 12 13 14 15 16 17 18 19 20 21 22 23 24 25 26 27 28 29 30 31 32 33 34 35 36 37 38 39 40 41 42 43 44 45 46 47
000 FTUS41 KBOX 220539 TAFMHT TAF KMHT 220539Z 2206/2306 VRB03KT 3SM BR BKN002 FM220800 27010KT P6SM BKN110 FM221300 27009KT P6SM SCT250 FM221500 29012G22KT P6SM SCT050 FM222200 30012KT P6SM SCT250=

USA.gov is the U.S. government's official web portal to all federal, state and local government web resources and services.